Home > Products > Valid Products > MTR

000
SAUS46 KPDT 210357
MTRMEH
METAR KMEH 210356Z AUTO 00000KT 8SM -RA FEW018 BKN037 OVC046 07/06
A2991 RMK AO2 RAB28 SLP129 P0001 T00670056





000
SAUS46 KPDT 210354
MTRMEH
SPECI KMEH 210353Z AUTO 00000KT 6SM -RA BR FEW016 BKN037 OVC046
07/06 A2991 RMK AO2 RAB28 P0001





000
SAUS46 KPDT 210339
MTRMEH
SPECI KMEH 210336Z AUTO 00000KT 3SM -RA BR FEW014 BKN025 OVC032
07/06 A2991 RMK AO2 RAB28 P0000 T00720056





000
SAUS46 KPDT 210320
MTRMEH
SPECI KMEH 210319Z AUTO 00000KT 10SM OVC030 07/05 A2990 RMK AO2
T00720050





000
SAUS46 KPDT 210257
MTRMEH
METAR KMEH 210256Z AUTO 00000KT 10SM FEW021 OVC026 08/04 A2989 RMK
AO2 SLP133 T00780044 51012





000
SAUS46 KPDT 210221
MTRMEH
SPECI KMEH 210220Z AUTO 00000KT 10SM BKN018 OVC023 08/04 A2988 RMK
AO2 T00780044





000
SAUS46 KPDT 210221
MTRMEH
SPECI KMEH 210220Z AUTO 00000KT 10SM BKN018 OVC023 08/04 A2988 RMK
AO2 T00780044





000
SAUS46 KPDT 210211
MTRMEH
SPECI KMEH 210210Z AUTO VRB04KT 10SM BKN014 OVC020 08/04 A2988 RMK
AO2 T00830044





000
SAUS46 KPDT 210211
MTRMEH
SPECI KMEH 210210Z AUTO VRB04KT 10SM BKN014 OVC020 08/04 A2988 RMK
AO2 T00830044





000
SAUS46 KPDT 210204
MTRMEH
SPECI KMEH 210203Z AUTO VRB03KT 10SM BKN016 OVC020 08/05 A2987 RMK
AO2 T00830050





000
SAUS46 KPDT 210204
MTRMEH
SPECI KMEH 210203Z AUTO VRB03KT 10SM BKN016 OVC020 08/05 A2987 RMK
AO2 T00830050





000
SAUS46 KPDT 210157
MTRMEH
METAR KMEH 210156Z AUTO VRB05KT 10SM BKN013 OVC019 08/05 A2987 RMK
AO2 SLP127 T00830050





000
SAUS46 KPDT 210157
MTRMEH
METAR KMEH 210156Z AUTO VRB05KT 10SM BKN013 OVC019 08/05 A2987 RMK
AO2 SLP127 T00830050





000
SAUS46 KPDT 210155
MTRMEH
SPECI KMEH 210153Z AUTO VRB05KT 10SM BKN013 OVC019 08/06 A2987 RMK
AO2





000
SAUS46 KPDT 210155
MTRMEH
SPECI KMEH 210153Z AUTO VRB05KT 10SM BKN013 OVC019 08/06 A2987 RMK
AO2





000
SAUS46 KPDT 210057
MTRMEH
METAR KMEH 210056Z AUTO VRB03KT 10SM BKN023 OVC032 11/06 A2985 RMK
AO2 SLP116 T01060056





000
SAUS46 KPDT 210053
MTRMEH
SPECI KMEH 210051Z AUTO VRB04KT 10SM BKN021 OVC032 11/06 A2985 RMK
AO2





000
SAUS46 KPDT 210039
MTRMEH
SPECI KMEH 210038Z AUTO VRB06KT 10SM SCT017 OVC033 11/06 A2985 RMK
AO2 T01060061





000
SAUS46 KPDT 202357
MTRMEH
METAR KMEH 202356Z AUTO 10SM OVC017 11/07 A2984 RMK AO2 SLP112
T01060067 10211 20106





000
SAUS46 KPDT 202257
MTRMEH
METAR KMEH 202256Z AUTO VRB06KT 10SM BKN024 14/08 A2983 RMK AO2
SLP100 T01390078 $





000
SAUS46 KPDT 202257
MTRMEH
METAR KMEH 202256Z AUTO VRB06KT 10SM BKN024 14/08 A2983 RMK AO2
SLP100 T01390078 $





000
SAUS46 KPDT 202200
MTRMEH
METAR KMEH 202156Z AUTO VRB03KT 10SM CLR 16/07 A2980 RMK AO2 SLP086
T01610072





000
SAUS46 KPDT 202200
MTRMEH
METAR KMEH 202156Z AUTO VRB03KT 10SM CLR 16/07 A2980 RMK AO2 SLP086
T01610072





000
SAUS46 KPDT 202057
MTRMEH
METAR KMEH 202056Z AUTO VRB03KT 10SM CLR 18/06 A2979 RMK AO2 SLP077
T01780061 55004





000
SAUS46 KPDT 201957
MTRMEH
METAR KMEH 201956Z AUTO VRB04KT 10SM CLR 19/03 A2978 RMK AO2 SLP069
T01940033





000
SAUS46 KPDT 201857
MTRMEH
METAR KMEH 201856Z AUTO VRB03KT 10SM CLR 21/01 A2979 RMK AO2 SLP069
T02060006





000
SAUS46 KPDT 201757
MTRMEH
METAR KMEH 201756Z AUTO VRB06KT 10SM CLR 21/01 A2980 RMK AO2 SLP069
T02060011 10206 21006 58001





000
SAUS46 KPDT 201658
MTRMEH
METAR KMEH 201656Z AUTO 10SM FEW110 15/03 A2981 RMK AO2 SLP079
T01500028





000
SAUS46 KPDT 201558
MTRMEH
METAR KMEH 201556Z AUTO 00000KT 10SM CLR 09/02 A2981 RMK AO2 SLP087
T00940017





000
SAUS46 KPDT 201457
MTRMEH
METAR KMEH 201456Z AUTO 00000KT 10SM CLR 01/M02 A2981 RMK AO2 SLP094
T00111017 58003





000
SAUS46 KPDT 201357
MTRMEH
METAR KMEH 201356Z AUTO 00000KT 10SM CLR 00/M02 A2981 RMK AO2 SLP094
T00001022





000
SAUS46 KPDT 201259
MTRMEH
METAR KMEH 201256Z AUTO 00000KT 10SM CLR 01/M02 A2982 RMK AO2 SLP094
T00061022





000
SAUS46 KPDT 201157
MTRMEH
METAR KMEH 201156Z AUTO 00000KT 10SM CLR 02/M02 A2982 RMK AO2 SLP091
T00171017 10128 20017 58000





000
SAUS46 KPDT 201057
MTRMEH
METAR KMEH 201056Z AUTO 00000KT 10SM CLR 03/M01 A2982 RMK AO2 SLP087
T00331011





000
SAUS46 KPDT 200958
MTRMEH
METAR KMEH 200956Z AUTO 00000KT 10SM CLR 05/M01 A2982 RMK AO2 SLP085
T00501006





000
SAUS46 KPDT 200958
MTRMEH
METAR KMEH 200956Z AUTO 00000KT 10SM CLR 05/M01 A2982 RMK AO2 SLP085
T00501006





000
SAUS46 KPDT 200858 COR
MTRMEH
METAR KMEH 200856Z AUTO 00000KT 10SM CLR 07/M01 A2982 RMK AO2 SLP083
T00671006 56001





000
SAUS46 KPDT 200757
MTRMEH
METAR KMEH 200756Z AUTO 00000KT 10SM CLR 10/M01 A2982 RMK AO2 SLP080
T01001006 402220022





000
SAUS46 KPDT 200657
MTRMEH
METAR KMEH 200656Z AUTO 00000KT 10SM CLR 11/M01 A2981 RMK AO2 SLP079
T01111011





000
SAUS46 KPDT 200557
MTRMEH
METAR KMEH 200556Z AUTO 00000KT 10SM CLR 13/M01 A2982 RMK AO2 SLP080
T01331011 10194 20122 56006





000
SAUS46 KPDT 200458
MTRMEH
METAR KMEH 200456Z AUTO 00000KT 10SM CLR 13/M01 A2982 RMK AO2 SLP082
T01331011





000
SAUS46 KPDT 200357
MTRMEH
METAR KMEH 200356Z AUTO 00000KT 10SM CLR 14/M01 A2983 RMK AO2 SLP090
T01391006





000
SAUS46 KPDT 200258
MTRMEH
METAR KMEH 200256Z AUTO 00000KT 10SM CLR 14/M01 A2984 RMK AO2 SLP096
T01441006 58002





000
SAUS46 KPDT 200158
MTRMEH
METAR KMEH 200156Z AUTO 00000KT 10SM CLR 16/M01 A2984 RMK AO2 SLP097
T01611011





000
SAUS46 KPDT 200057
MTRMEH
METAR KMEH 200056Z AUTO VRB03KT 10SM CLR 18/M01 A2984 RMK AO2 SLP093
T01781006





000
SAUS46 KPDT 192358
MTRMEH
METAR KMEH 192356Z AUTO VRB03KT 10SM CLR 19/00 A2984 RMK AO2 SLP094
T01940000 10222 20178 56015





000
SAUS46 KPDT 192358
MTRMEH
METAR KMEH 192356Z AUTO VRB03KT 10SM CLR 19/00 A2984 RMK AO2 SLP094
T01940000 10222 20178 56015





000
SAUS46 KPDT 192257
MTRMEH
METAR KMEH 192256Z AUTO VRB03KT 10SM CLR 21/01 A2985 RMK AO2 SLP098
T02060011





000
SAUS46 KPDT 192257
MTRMEH
METAR KMEH 192256Z AUTO VRB03KT 10SM CLR 21/01 A2985 RMK AO2 SLP098
T02060011





000
SAUS46 KPDT 192157
MTRMEH
METAR KMEH 192156Z AUTO 10SM CLR 22/03 A2986 RMK AO2 SLP101
T02170028





000
SAUS46 KPDT 192100
MTRMEH
METAR KMEH 192056Z AUTO VRB06KT 10SM CLR 21/03 A2989 RMK AO2 SLP114
T02060033 58015





000
SAUS46 KPDT 191958
MTRMEH
METAR KMEH 191956Z AUTO VRB03KT 10SM CLR 20/04 A2992 RMK AO2 SLP123
T02000039





000
SAUS46 KPDT 191857
MTRMEH
METAR KMEH 191856Z AUTO VRB04KT 10SM CLR 19/04 A2993 RMK AO2 SLP129
T01890044





000
SAUS46 KPDT 191757
MTRMEH
METAR KMEH 191756Z AUTO VRB03KT 10SM CLR 18/05 A2994 RMK AO2 SLP131
T01780050 10178 20050 58002





000
SAUS46 KPDT 191657
MTRMEH
METAR KMEH 191656Z AUTO 10SM CLR 16/04 A2994 RMK AO2 SLP134
T01610044





000
SAUS46 KPDT 191558
MTRMEH
METAR KMEH 191556Z AUTO 00000KT 10SM CLR 13/05 A2995 RMK AO2 SLP139
T01280050





000
SAUS46 KPDT 191457
MTRMEH
METAR KMEH 191456Z AUTO 00000KT 10SM CLR 09/04 A2995 RMK AO2 SLP139
T00890044 56001





000
SAUS46 KPDT 191357
MTRMEH
METAR KMEH 191356Z AUTO 00000KT 10SM CLR 08/04 A2995 RMK AO2 SLP137
T00830039





000
SAUS46 KPDT 191258
MTRMEH
METAR KMEH 191256Z AUTO 00000KT 10SM CLR 07/04 A2994 RMK AO2 SLP132
T00720044





000
SAUS46 KPDT 191158
MTRMEH
METAR KMEH 191156Z AUTO 00000KT 10SM CLR 06/04 A2995 RMK AO2 SLP135
T00560039 10067 20022 57009





000
SAUS46 KPDT 191057
MTRMEH
METAR KMEH 191056Z AUTO 00000KT 10SM CLR 04/03 A2996 RMK AO2 SLP137
T00440028





000
SAUS46 KPDT 190959
MTRMEH
METAR KMEH 190956Z AUTO 00000KT 10SM CLR 03/02 A2997 RMK AO2 SLP141
T00330022





000
SAUS46 KPDT 190959
MTRMEH
METAR KMEH 190956Z AUTO 00000KT 10SM CLR 03/02 A2997 RMK AO2 SLP141
T00330022





000
SAUS46 KPDT 190858
MTRMEH
METAR KMEH 190856Z AUTO 00000KT 10SM CLR 03/02 A2998 RMK AO2 SLP146
T00280017 56008





000
SAUS46 KPDT 190800
MTRMEH
METAR KMEH 190756Z AUTO 00000KT 10SM CLR 03/02 A2998 RMK AO2 SLP150
T00280017 402000028





000
SAUS46 KPDT 190657
MTRMEH
METAR KMEH 190656Z AUTO 00000KT 10SM CLR 04/03 A2999 RMK AO2 SLP152
T00390028





000
SAUS46 KPDT 190558
MTRMEH
METAR KMEH 190556Z AUTO 00000KT 10SM CLR 05/03 A3000 RMK AO2 SLP158
T00500033 10178 20050 58007





000
SAUS46 KPDT 190500
MTRMEH
METAR KMEH 190456Z AUTO 00000KT 10SM CLR 06/04 A3001 RMK AO2 SLP163
T00610044





000
SAUS46 KPDT 190358
MTRMEH
METAR KMEH 190356Z AUTO 00000KT 10SM CLR 07/06 A3003 RMK AO2 SLP170
T00720056





000
SAUS46 KPDT 190358
MTRMEH
METAR KMEH 190356Z AUTO 00000KT 10SM CLR 07/06 A3003 RMK AO2 SLP170
T00720056





000
SAUS46 KPDT 190258
MTRMEH
METAR KMEH 190256Z AUTO 00000KT 10SM CLR 09/07 A3003 RMK AO2 SLP168
T00940067 53002





000
SAUS46 KPDT 190200
MTRMEH
METAR KMEH 190156Z AUTO 00000KT 10SM CLR 12/07 A3002 RMK AO2 SLP166
T01170072





000
SAUS46 KPDT 190059
MTRMEH
METAR KMEH 190056Z AUTO 00000KT 10SM FEW055 16/08 A3002 RMK AO2
SLP161 T01560078





000
SAUS46 KPDT 190000
MTRMEH
METAR KMEH 182356Z AUTO VRB04KT 10SM OVC055 18/07 A3002 RMK AO2
SLP156 T01780067 10200 20150 56007





000
SAUS46 KPDT 182258
MTRMEH
METAR KMEH 182256Z AUTO VRB04KT 10SM OVC050 19/07 A3003 RMK AO2
SLP157 T01940067





000
SAUS46 KPDT 182200
MTRMEH
METAR KMEH 182156Z AUTO 00000KT 10SM SCT050 SCT060 20/06 A3003 RMK
AO2 SLP158 T02000061





000
SAUS46 KPDT 182058
MTRMEH
METAR KMEH 182056Z AUTO VRB03KT 10SM CLR 19/07 A3004 RMK AO2 SLP163
T01890067 58010





000
SAUS46 KPDT 181958
MTRMEH
METAR KMEH 181956Z AUTO VRB03KT 10SM OVC055 17/07 A3006 RMK AO2
SLP170 T01720067





000
SAUS46 KPDT 181958
MTRMEH
METAR KMEH 181956Z AUTO VRB03KT 10SM OVC055 17/07 A3006 RMK AO2
SLP170 T01720067





000
SAUS46 KPDT 181857
MTRMEH
METAR KMEH 181856Z AUTO 00000KT 10SM FEW036 BKN055 17/07 A3007 RMK
AO2 SLP173 T01670067





000
SAUS46 KPDT 181757
MTRMEH
METAR KMEH 181756Z AUTO 00000KT 10SM BKN034 BKN050 15/08 A3008 RMK
AO2 SLP178 60000 T01500078 10150 20067 50007





000
SAUS46 KPDT 181659
MTRMEH
METAR KMEH 181656Z AUTO 00000KT 10SM BKN037 OVC055 12/06 A3009 RMK
AO2 RAB30E48 SLP185 P0000 T01170061





000
SAUS46 KPDT 181659
MTRMEH
METAR KMEH 181656Z AUTO 00000KT 10SM BKN037 OVC055 12/06 A3009 RMK
AO2 RAB30E48 SLP185 P0000 T01170061





000
SAUS46 KPDT 181558
MTRMEH
METAR KMEH 181556Z AUTO 00000KT 10SM OVC038 09/06 A3007 RMK AO2
SLP184 T00940056





000
SAUS46 KPDT 181558
MTRMEH
METAR KMEH 181556Z AUTO 00000KT 10SM OVC038 09/06 A3007 RMK AO2
SLP184 T00940056





000
SAUS46 KPDT 181458
MTRMEH
METAR KMEH 181456Z AUTO 00000KT 10SM OVC038 08/04 A3006 RMK AO2
SLP178 T00780044 53012





000
SAUS46 KPDT 181458
MTRMEH
METAR KMEH 181456Z AUTO 00000KT 10SM OVC038 08/04 A3006 RMK AO2
SLP178 T00780044 53012





000
SAUS46 KPDT 181357
MTRMEH
METAR KMEH 181356Z AUTO 00000KT 10SM OVC039 07/04 A3004 RMK AO2
SLP169 T00720039





000
SAUS46 KPDT 181257
MTRMEH
METAR KMEH 181256Z AUTO 00000KT 10SM SCT050 SCT070 OVC095 07/04
A3002 RMK AO2 SLP163 T00670039





000
SAUS46 KPDT 181158
MTRMEH
METAR KMEH 181156Z AUTO 00000KT 10SM BKN048 07/04 A3002 RMK AO2
SLP156 T00720039 10089 20072 51004





000
SAUS46 KPDT 181059
MTRMEH
METAR KMEH 181056Z AUTO 00000KT 10SM OVC048 07/04 A3001 RMK AO2
SLP155 T00720039





000
SAUS46 KPDT 181059
MTRMEH
METAR KMEH 181056Z AUTO 00000KT 10SM OVC048 07/04 A3001 RMK AO2
SLP155 T00720039





000
SAUS46 KPDT 181000
MTRMEH
METAR KMEH 180956Z AUTO 00000KT 10SM BKN049 OVC075 07/04 A3001 RMK
AO2 SLP153 T00720039





000
SAUS46 KPDT 180857
MTRMEH
METAR KMEH 180856Z AUTO 00000KT 8SM BKN075 07/04 A3000 RMK AO2
SLP153 T00720039 53003





000
SAUS46 KPDT 180758
MTRMEH
METAR KMEH 180756Z AUTO 00000KT 10SM OVC070 08/04 A3000 RMK AO2
SLP152 T00780039 401780072





000
SAUS46 KPDT 180657
MTRMEH
METAR KMEH 180656Z AUTO 00000KT 10SM OVC065 09/04 A2999 RMK AO2
SLP147 T00890039





000
SAUS46 KPDT 180557
MTRMEH
METAR KMEH 180556Z AUTO 00000KT 10SM BKN080 OVC100 09/04 A2999 RMK
AO2 SLP150 T00890039 10167 20089 53012





000
SAUS46 KPDT 180458
MTRMEH
METAR KMEH 180456Z AUTO 00000KT 10SM OVC100 09/04 A2998 RMK AO2
SLP147 T00890039





000
SAUS46 KPDT 180458
MTRMEH
METAR KMEH 180456Z AUTO 00000KT 10SM OVC100 09/04 A2998 RMK AO2
SLP147 T00890039





    US Dept of Commerce
    National Oceanic and Atmospheric Administration
    National Weather Service
    1325 East West Highway
    Silver Spring, MD 20910
    Page Author: NWS Internet Services Team
Disclaimer
Information Quality
Credits
Glossary
Privacy Policy
Freedom of Information Act (FOIA)
About Us
Career Opportunities